createdAt,value
2022-08-12T00:00:18.511Z,19.65
2022-08-12T00:03:03.703Z,19.61
2022-08-12T00:06:04.140Z,19.58
2022-08-12T00:08:54.801Z,19.50
2022-08-12T00:11:41.141Z,19.42
2022-08-12T00:14:28.477Z,19.42
2022-08-12T00:17:13.782Z,19.44
2022-08-12T00:19:58.941Z,19.45
2022-08-12T00:22:44.225Z,19.39
2022-08-12T00:26:00.501Z,19.35
2022-08-12T00:28:36.168Z,19.29
2022-08-12T00:31:21.687Z,19.29
2022-08-12T00:34:07.006Z,19.24
2022-08-12T00:36:52.349Z,19.19
2022-08-12T00:39:38.792Z,19.11
2022-08-12T00:42:11.539Z,19.06
2022-08-12T00:44:45.571Z,19.00
2022-08-12T00:47:24.511Z,18.99
2022-08-12T00:49:54.586Z,18.97
2022-08-12T00:52:23.570Z,18.97
2022-08-12T00:54:51.557Z,18.99
2022-08-12T00:57:21.148Z,18.98
2022-08-12T00:59:51.266Z,19.01
2022-08-12T01:02:26.755Z,18.95
2022-08-12T01:05:16.455Z,18.92
2022-08-12T01:08:03.331Z,18.93
2022-08-12T01:10:49.936Z,18.93
2022-08-12T01:13:20.236Z,18.90
2022-08-12T01:15:53.619Z,18.86
2022-08-12T01:18:23.476Z,18.84
2022-08-12T01:21:13.241Z,18.82
2022-08-12T01:23:56.925Z,18.84
2022-08-12T01:26:25.466Z,18.84
2022-08-12T01:28:58.651Z,18.81
2022-08-12T01:31:27.019Z,18.77
2022-08-12T01:34:28.528Z,18.76
2022-08-12T01:37:02.285Z,18.74
2022-08-12T01:40:34.439Z,18.74
2022-08-12T01:42:43.474Z,18.60
2022-08-12T01:45:12.540Z,18.54
2022-08-12T01:48:00.722Z,18.49
2022-08-12T01:50:36.913Z,18.43
2022-08-12T01:53:10.638Z,18.35
2022-08-12T01:55:41.523Z,18.22
2022-08-12T01:58:18.147Z,18.17
2022-08-12T02:00:56.185Z,18.10
2022-08-12T02:03:56.793Z,18.05
2022-08-12T02:06:55.077Z,18.03
2022-08-12T02:10:02.093Z,18.02
2022-08-12T02:13:03.130Z,17.99
2022-08-12T02:15:46.758Z,17.97
2022-08-12T02:18:29.608Z,17.99
2022-08-12T02:21:13.543Z,17.99
2022-08-12T02:23:44.079Z,17.98
2022-08-12T02:26:15.983Z,18.00
2022-08-12T02:28:43.316Z,18.03
2022-08-12T02:31:11.639Z,18.05
2022-08-12T02:33:39.790Z,18.04
2022-08-12T02:36:06.757Z,18.05
2022-08-12T02:38:34.420Z,18.05
2022-08-12T02:41:03.921Z,18.03
2022-08-12T02:43:51.417Z,17.98
2022-08-12T02:46:39.815Z,17.88
2022-08-12T02:49:13.982Z,17.83
2022-08-12T02:51:44.443Z,17.81
2022-08-12T02:54:11.948Z,17.78
2022-08-12T02:56:41.058Z,17.72
2022-08-12T02:59:14.204Z,17.68
2022-08-12T03:01:49.782Z,17.65
2022-08-12T03:04:58.524Z,17.59
2022-08-12T03:07:31.958Z,17.57
2022-08-12T03:10:13.072Z,17.50
2022-08-12T03:12:50.802Z,17.49
2022-08-12T03:15:24.011Z,17.47
2022-08-12T03:18:26.275Z,17.48
2022-08-12T03:20:43.060Z,17.36
2022-08-12T03:23:19.426Z,17.32
2022-08-12T03:25:59.395Z,17.34
2022-08-12T03:28:46.911Z,17.30
2022-08-12T03:31:13.560Z,17.28
2022-08-12T03:34:00.699Z,17.25
2022-08-12T03:36:29.044Z,17.23
2022-08-12T03:39:15.829Z,17.24
2022-08-12T03:42:10.553Z,17.23
2022-08-12T03:45:23.814Z,17.21
2022-08-12T03:48:38.398Z,17.23
2022-08-12T03:51:24.329Z,17.23
2022-08-12T03:54:11.497Z,17.20
2022-08-12T03:56:57.966Z,17.23
2022-08-12T03:59:43.130Z,17.25
2022-08-12T04:02:14.825Z,17.31
2022-08-12T04:04:45.406Z,17.34
2022-08-12T04:07:13.835Z,17.37
2022-08-12T04:09:43.154Z,17.42
2022-08-12T04:12:29.882Z,17.49
2022-08-12T04:15:01.006Z,17.59
2022-08-12T04:17:28.712Z,17.73
2022-08-12T04:19:56.832Z,17.86
2022-08-12T04:22:28.998Z,17.93
2022-08-12T04:24:59.006Z,17.98
2022-08-12T04:27:25.690Z,18.07
2022-08-12T04:30:31.657Z,18.18
2022-08-12T04:32:43.827Z,18.30
2022-08-12T04:35:11.197Z,18.46
2022-08-12T04:37:59.313Z,18.60
2022-08-12T04:40:29.804Z,18.72
2022-08-12T04:42:57.780Z,18.84
2022-08-12T04:45:25.135Z,19.02
2022-08-12T04:47:52.226Z,19.13
2022-08-12T04:50:35.116Z,19.19
2022-08-12T04:53:08.254Z,19.35
2022-08-12T04:55:37.772Z,19.46
2022-08-12T04:58:04.762Z,19.56
2022-08-12T05:00:31.774Z,19.65
2022-08-12T05:02:58.698Z,19.70
2022-08-12T05:05:25.467Z,19.60
2022-08-12T05:07:54.094Z,19.67
2022-08-12T05:10:33.429Z,19.53
2022-08-12T05:13:05.709Z,19.32
2022-08-12T05:15:32.361Z,19.42
2022-08-12T05:18:00.167Z,19.58
2022-08-12T05:20:29.572Z,19.75
2022-08-12T05:23:13.351Z,19.81
2022-08-12T05:25:45.895Z,19.72
2022-08-12T05:28:13.926Z,19.72
2022-08-12T05:30:43.233Z,19.71
2022-08-12T05:33:11.395Z,19.87
2022-08-12T05:35:40.315Z,19.89
2022-08-12T05:38:28.196Z,20.19
2022-08-12T05:40:55.261Z,20.29
2022-08-12T05:43:22.447Z,20.56
2022-08-12T05:45:49.688Z,20.71
2022-08-12T05:48:17.409Z,20.81
2022-08-12T05:50:45.571Z,21.00
2022-08-12T05:53:13.291Z,21.23
2022-08-12T05:55:40.674Z,21.62
2022-08-12T05:58:10.305Z,21.97
2022-08-12T06:00:37.588Z,21.97
2022-08-12T06:03:06.157Z,21.86
2022-08-12T06:05:54.206Z,22.11
2022-08-12T06:08:23.115Z,22.58
2022-08-12T06:10:50.513Z,22.87
2022-08-12T06:13:28.057Z,23.05
2022-08-12T06:16:07.449Z,23.23
2022-08-12T06:18:34.748Z,23.49
2022-08-12T06:21:02.183Z,23.78
2022-08-12T06:23:29.719Z,23.93
2022-08-12T06:25:56.868Z,24.12
2022-08-12T06:28:23.945Z,23.93
2022-08-12T06:31:08.549Z,24.09
2022-08-12T06:34:00.710Z,24.27
2022-08-12T06:36:30.057Z,24.18
2022-08-12T06:39:00.879Z,23.76
2022-08-12T06:42:04.922Z,23.81
2022-08-12T06:44:32.990Z,24.04
2022-08-12T06:47:00.133Z,24.22
2022-08-12T06:49:28.402Z,24.26
2022-08-12T06:51:56.741Z,24.34
2022-08-12T06:54:30.717Z,24.40
2022-08-12T06:57:04.324Z,24.76
2022-08-12T06:59:32.419Z,25.19
2022-08-12T07:01:59.272Z,25.58
2022-08-12T07:04:41.541Z,25.45
2022-08-12T07:07:10.635Z,25.33
2022-08-12T07:10:03.957Z,25.47
2022-08-12T07:12:29.787Z,25.52
2022-08-12T07:15:02.076Z,25.83
2022-08-12T07:17:36.201Z,26.40
2022-08-12T07:20:05.616Z,26.97
2022-08-12T07:22:33.442Z,26.60
2022-08-12T07:25:18.617Z,26.87
2022-08-12T07:27:45.790Z,26.78
2022-08-12T07:30:13.361Z,26.48
2022-08-12T07:32:40.177Z,26.17
2022-08-12T07:35:07.395Z,26.20
2022-08-12T07:37:42.054Z,26.94
2022-08-12T07:40:12.174Z,27.34
2022-08-12T07:42:43.874Z,27.40
2022-08-12T07:45:12.426Z,27.97
2022-08-12T07:47:43.527Z,27.23
2022-08-12T07:50:13.101Z,27.27
2022-08-12T07:52:43.142Z,27.06
2022-08-12T07:55:11.479Z,27.23
2022-08-12T07:57:55.940Z,27.31
2022-08-12T08:00:23.274Z,27.66
2022-08-12T08:02:54.331Z,28.09
2022-08-12T08:05:23.807Z,28.27
2022-08-12T08:07:53.766Z,27.11
2022-08-12T08:10:21.008Z,26.47
2022-08-12T08:12:53.950Z,27.07
2022-08-12T08:16:00.794Z,26.88
2022-08-12T08:18:26.503Z,27.97
2022-08-12T08:20:56.655Z,28.64
2022-08-12T08:23:43.652Z,29.07
2022-08-12T08:26:15.698Z,29.58
2022-08-12T08:28:43.643Z,30.10
2022-08-12T08:31:10.488Z,30.27
2022-08-12T08:34:05.227Z,30.13
2022-08-12T08:36:24.389Z,29.95
2022-08-12T08:38:53.264Z,29.73
2022-08-12T08:42:14.276Z,30.01
2022-08-12T08:44:30.600Z,30.68
2022-08-12T08:46:57.428Z,30.52
2022-08-12T08:49:24.876Z,30.84
2022-08-12T08:51:51.635Z,31.09
2022-08-12T08:54:18.366Z,31.66
2022-08-12T08:56:50.316Z,31.63
2022-08-12T08:59:19.390Z,31.80
2022-08-12T09:01:47.143Z,30.72
2022-08-12T09:05:07.307Z,30.49
2022-08-12T09:07:17.878Z,31.42
2022-08-12T09:10:03.349Z,31.42
2022-08-12T09:12:54.004Z,31.25
2022-08-12T09:15:21.834Z,31.62
2022-08-12T09:17:57.026Z,32.08
2022-08-12T09:20:36.253Z,32.20
2022-08-12T09:25:58.383Z,31.32
2022-08-12T09:28:32.995Z,31.46
2022-08-12T09:31:00.386Z,31.55
2022-08-12T09:34:28.856Z,31.93
2022-08-12T09:36:31.419Z,31.35
2022-08-12T09:40:02.062Z,32.06
2022-08-12T09:42:33.551Z,32.87
2022-08-12T09:46:11.147Z,32.95
2022-08-12T09:48:22.250Z,33.31
2022-08-12T09:50:52.162Z,33.40
2022-08-12T09:53:35.947Z,33.64
2022-08-12T09:56:41.153Z,34.04
2022-08-12T09:59:00.401Z,34.13
2022-08-12T10:01:34.910Z,34.13
2022-08-12T10:04:19.031Z,34.49
2022-08-12T10:06:55.078Z,33.91
2022-08-12T10:09:28.605Z,33.63
2022-08-12T10:12:31.109Z,33.81
2022-08-12T10:15:00.014Z,32.70
2022-08-12T10:17:26.720Z,32.90
2022-08-12T10:19:53.399Z,32.82
2022-08-12T10:22:38.803Z,32.98
2022-08-12T10:26:18.438Z,32.71
2022-08-12T10:28:38.319Z,33.31
2022-08-12T10:31:06.055Z,33.91
2022-08-12T10:33:55.174Z,34.62
2022-08-12T10:36:21.556Z,33.97
2022-08-12T10:39:03.721Z,33.91
2022-08-12T10:42:09.480Z,34.01
2022-08-12T10:44:37.134Z,34.16
2022-08-12T10:47:26.628Z,34.64
2022-08-12T10:50:02.659Z,35.39
2022-08-12T10:52:39.008Z,35.09
2022-08-12T10:55:12.948Z,35.43
2022-08-12T10:58:15.351Z,36.24
2022-08-12T11:00:33.953Z,35.43
2022-08-12T11:04:34.344Z,34.90
2022-08-12T11:07:09.834Z,34.98
2022-08-12T11:08:43.071Z,35.43
2022-08-12T11:12:08.432Z,36.03
2022-08-12T11:14:05.713Z,36.44
2022-08-12T11:16:33.419Z,35.83
2022-08-12T11:19:03.004Z,35.75
2022-08-12T11:21:57.698Z,36.07
2022-08-12T11:24:31.945Z,35.27
2022-08-12T11:27:07.841Z,35.28
2022-08-12T11:30:06.097Z,34.81
2022-08-12T11:32:24.622Z,35.24
2022-08-12T11:34:54.562Z,34.54
2022-08-12T11:37:25.682Z,34.24
2022-08-12T11:42:45.891Z,35.45
2022-08-12T11:45:16.574Z,36.36
2022-08-12T11:47:43.888Z,36.03
2022-08-12T11:50:11.588Z,35.44
2022-08-12T11:52:55.479Z,35.26
2022-08-12T11:55:24.429Z,35.41
2022-08-12T11:58:44.157Z,35.17
2022-08-12T12:03:44.103Z,36.75
2022-08-12T12:06:17.083Z,37.40
2022-08-12T12:08:50.043Z,37.17
2022-08-12T12:11:18.619Z,36.33
2022-08-12T12:14:07.783Z,35.31
2022-08-12T12:16:33.294Z,34.32
2022-08-12T12:19:00.861Z,34.51
2022-08-12T12:21:46.771Z,34.45
2022-08-12T12:24:20.821Z,34.49
2022-08-12T12:26:59.755Z,33.89
2022-08-12T12:30:19.314Z,33.49
2022-08-12T12:32:15.114Z,33.59
2022-08-12T12:35:17.878Z,33.69
2022-08-12T12:38:04.077Z,33.22
2022-08-12T12:40:15.963Z,33.64
2022-08-12T12:43:00.349Z,34.66
2022-08-12T12:45:33.386Z,35.08
2022-08-12T12:51:56.400Z,33.73
2022-08-12T12:54:29.078Z,33.50
2022-08-12T12:56:56.187Z,33.40
2022-08-12T12:59:33.748Z,33.46
2022-08-12T13:02:10.997Z,33.68
2022-08-12T13:04:38.057Z,34.25
2022-08-12T13:07:06.593Z,33.87
2022-08-12T13:09:36.302Z,34.00
2022-08-12T13:12:05.167Z,33.91
2022-08-12T13:14:35.174Z,33.04
2022-08-12T13:17:06.283Z,33.08
2022-08-12T13:19:44.518Z,33.18
2022-08-12T13:22:20.424Z,33.58
2022-08-12T13:24:55.479Z,33.66
2022-08-12T13:27:34.922Z,34.36
2022-08-12T13:30:10.957Z,34.75
2022-08-12T13:32:57.515Z,34.61
2022-08-12T13:36:02.663Z,34.52
2022-08-12T13:38:13.500Z,34.70
2022-08-12T13:40:40.601Z,34.39
2022-08-12T13:43:07.546Z,34.63
2022-08-12T13:45:36.837Z,34.22
2022-08-12T13:48:05.510Z,34.05
2022-08-12T13:50:38.054Z,34.17
2022-08-12T13:53:24.388Z,34.13
2022-08-12T13:56:01.319Z,33.67
2022-08-12T13:58:30.795Z,32.91
2022-08-12T14:01:05.873Z,33.11
2022-08-12T14:03:50.246Z,33.13
2022-08-12T14:06:19.264Z,32.64
2022-08-12T14:08:49.768Z,32.74
2022-08-12T14:11:18.376Z,32.57
2022-08-12T14:14:05.541Z,32.37
2022-08-12T14:16:48.158Z,32.14
2022-08-12T14:19:24.384Z,32.11
2022-08-12T14:21:58.892Z,31.84
2022-08-12T14:24:30.630Z,32.22
2022-08-12T14:26:58.863Z,32.12
2022-08-12T14:29:56.293Z,31.75
2022-08-12T14:32:17.911Z,31.99
2022-08-12T14:34:47.245Z,31.91
2022-08-12T14:37:55.599Z,31.57
2022-08-12T14:40:28.061Z,31.56
2022-08-12T14:42:55.713Z,31.47
2022-08-12T14:45:44.471Z,31.54
2022-08-12T14:48:12.811Z,31.53
2022-08-12T14:51:02.626Z,31.34
2022-08-12T14:59:23.998Z,31.20
2022-08-12T15:01:52.005Z,31.36
2022-08-12T15:04:22.557Z,31.17
2022-08-12T15:06:52.630Z,31.15
2022-08-12T15:09:28.726Z,31.04
2022-08-12T15:12:03.199Z,30.80
2022-08-12T15:14:30.626Z,30.75
2022-08-12T15:17:00.049Z,30.75
2022-08-12T15:20:10.806Z,30.68
2022-08-12T15:22:38.133Z,30.61
2022-08-12T15:25:07.151Z,30.68
2022-08-12T15:28:04.437Z,30.98
2022-08-12T15:30:26.925Z,31.06
2022-08-12T15:32:57.462Z,31.34
2022-08-12T15:35:27.470Z,31.47
2022-08-12T15:38:13.795Z,31.81
2022-08-12T15:40:53.688Z,32.71
2022-08-12T15:43:51.043Z,32.93
2022-08-12T15:46:14.834Z,32.70
2022-08-12T15:48:46.475Z,32.14
2022-08-12T15:51:58.630Z,31.73
2022-08-12T15:54:33.641Z,31.46
2022-08-12T15:57:07.691Z,31.65
2022-08-12T16:00:03.951Z,32.04
2022-08-12T16:02:23.008Z,32.07
2022-08-12T16:04:54.258Z,31.97
2022-08-12T16:07:25.903Z,31.81
2022-08-12T16:10:07.008Z,31.57
2022-08-12T16:12:54.403Z,30.95
2022-08-12T16:15:24.823Z,30.77
2022-08-12T16:18:18.333Z,30.61
2022-08-12T16:20:46.740Z,30.55
2022-08-12T16:23:35.975Z,30.31
2022-08-12T16:26:06.047Z,30.42
2022-08-12T16:28:42.554Z,30.08
2022-08-12T16:31:14.388Z,30.10
2022-08-12T16:33:59.285Z,29.85
2022-08-12T16:36:28.632Z,29.71
2022-08-12T16:38:55.323Z,29.66
2022-08-12T16:41:22.900Z,29.30
2022-08-12T16:43:50.548Z,29.09
2022-08-12T16:46:31.911Z,28.89
2022-08-12T16:49:09.111Z,28.72
2022-08-12T16:51:45.653Z,28.60
2022-08-12T16:54:16.519Z,28.46
2022-08-12T16:56:54.961Z,28.49
2022-08-12T16:59:24.058Z,28.59
2022-08-12T17:01:51.629Z,28.52
2022-08-12T17:04:18.976Z,28.45
2022-08-12T17:06:48.009Z,28.29
2022-08-12T17:09:17.603Z,28.23
2022-08-12T17:11:49.245Z,28.19
2022-08-12T17:14:16.916Z,28.13
2022-08-12T17:16:45.657Z,28.05
2022-08-12T17:19:14.461Z,27.95
2022-08-12T17:22:01.481Z,27.89
2022-08-12T17:24:32.568Z,27.82
2022-08-12T17:27:16.003Z,27.76
2022-08-12T17:30:02.650Z,27.73
2022-08-12T17:32:33.750Z,27.62
2022-08-12T17:35:19.722Z,27.56
2022-08-12T17:37:48.723Z,27.47
2022-08-12T17:40:34.307Z,27.37
2022-08-12T17:43:54.631Z,27.30
2022-08-12T17:45:56.212Z,27.25
2022-08-12T17:48:34.914Z,27.21
2022-08-12T17:51:15.983Z,27.14
2022-08-12T17:54:05.942Z,27.07
2022-08-12T17:56:32.209Z,27.03
2022-08-12T17:59:00.822Z,26.98
2022-08-12T18:01:29.361Z,26.93
2022-08-12T18:04:21.726Z,26.85
2022-08-12T18:06:51.243Z,26.80
2022-08-12T18:09:20.441Z,26.76
2022-08-12T18:12:24.865Z,26.68
2022-08-12T18:15:00.999Z,26.67
2022-08-12T18:17:34.717Z,26.61
2022-08-12T18:20:08.209Z,26.55
2022-08-12T18:22:42.848Z,26.53
2022-08-12T18:26:14.057Z,26.49
2022-08-12T18:28:28.171Z,26.42
2022-08-12T18:31:03.150Z,26.37
2022-08-12T18:33:44.040Z,26.34
2022-08-12T18:36:14.702Z,26.33
2022-08-12T18:38:53.151Z,26.27
2022-08-12T18:41:34.562Z,26.25
2022-08-12T18:44:09.624Z,26.23
2022-08-12T18:46:54.406Z,26.19
2022-08-12T18:49:39.251Z,26.14
2022-08-12T18:52:08.056Z,26.09
2022-08-12T18:54:41.546Z,26.08
2022-08-12T18:57:19.799Z,26.07
2022-08-12T19:00:07.744Z,26.05
2022-08-12T19:02:40.127Z,26.00
2022-08-12T19:05:11.567Z,25.99
2022-08-12T19:08:00.635Z,25.98
2022-08-12T19:10:30.731Z,25.95
2022-08-12T19:13:23.359Z,25.92
2022-08-12T19:15:58.045Z,25.92
2022-08-12T19:18:30.104Z,25.89
2022-08-12T19:21:06.116Z,25.89
2022-08-12T19:23:35.492Z,25.87
2022-08-12T19:26:03.649Z,25.85
2022-08-12T19:28:36.438Z,25.82
2022-08-12T19:31:45.201Z,25.79
2022-08-12T19:37:38.535Z,25.78
2022-08-12T19:40:31.879Z,25.76
2022-08-12T19:43:17.294Z,25.79
2022-08-12T19:45:53.569Z,25.80
2022-08-12T19:48:23.045Z,25.77
2022-08-12T19:50:53.546Z,25.72
2022-08-12T19:53:24.444Z,25.67
2022-08-12T19:55:54.841Z,25.64
2022-08-12T19:58:23.326Z,25.61
2022-08-12T20:00:54.324Z,25.59
2022-08-12T20:03:38.326Z,25.59
2022-08-12T20:06:13.727Z,25.59
2022-08-12T20:08:48.694Z,25.54
2022-08-12T20:12:11.891Z,25.53
2022-08-12T20:14:05.103Z,25.51
2022-08-12T20:16:57.625Z,25.49
2022-08-12T20:19:52.678Z,25.47
2022-08-12T20:22:24.955Z,25.43
2022-08-12T20:25:09.126Z,25.39
2022-08-12T20:28:05.315Z,25.39
2022-08-12T20:30:52.667Z,25.36
2022-08-12T20:33:18.380Z,25.33
2022-08-12T20:36:06.628Z,25.30
2022-08-12T20:38:39.798Z,25.24
2022-08-12T20:41:16.273Z,25.24
2022-08-12T20:43:45.090Z,25.22
2022-08-12T20:46:13.469Z,25.19
2022-08-12T20:48:43.431Z,25.17
2022-08-12T20:51:15.897Z,25.15
2022-08-12T20:53:58.596Z,25.12
2022-08-12T20:56:35.456Z,25.13
2022-08-12T20:59:06.617Z,25.11
2022-08-12T21:01:46.125Z,25.10
2022-08-12T21:04:33.804Z,25.07
2022-08-12T21:07:09.551Z,25.06
2022-08-12T21:09:47.618Z,25.06
2022-08-12T21:12:28.221Z,25.01
2022-08-12T21:15:23.919Z,24.98
2022-08-12T21:18:09.167Z,24.96
2022-08-12T21:20:44.512Z,24.92
2022-08-12T21:23:11.282Z,24.91
2022-08-12T21:25:45.203Z,24.88
2022-08-12T21:28:14.336Z,24.88
2022-08-12T21:31:11.527Z,24.86
2022-08-12T21:33:45.569Z,24.86
2022-08-12T21:36:22.774Z,24.85
2022-08-12T21:39:20.365Z,24.83
2022-08-12T21:41:53.191Z,24.83
2022-08-12T21:45:43.798Z,24.81
2022-08-12T21:47:19.782Z,24.78
2022-08-12T21:49:55.657Z,24.76
2022-08-12T21:52:48.790Z,24.73
2022-08-12T21:55:18.912Z,24.70
2022-08-12T21:57:53.149Z,24.69
2022-08-12T22:00:31.547Z,24.70
2022-08-12T22:03:17.666Z,24.71
2022-08-12T22:06:20.392Z,24.68
2022-08-12T22:09:01.948Z,24.66
2022-08-12T22:11:42.368Z,24.65
2022-08-12T22:14:21.726Z,24.64
2022-08-12T22:16:52.413Z,24.60
2022-08-12T22:19:19.734Z,24.58
2022-08-12T22:21:53.516Z,24.56
2022-08-12T22:24:26.997Z,24.55
2022-08-12T22:27:28.194Z,24.55
2022-08-12T22:30:16.481Z,24.54
2022-08-12T22:32:54.781Z,24.53
2022-08-12T22:35:29.767Z,24.50
2022-08-12T22:38:19.799Z,24.48
2022-08-12T22:40:51.906Z,24.45
2022-08-12T22:44:01.128Z,24.41
2022-08-12T22:46:26.704Z,24.39
2022-08-12T22:48:57.512Z,24.36
2022-08-12T22:51:24.493Z,24.35
2022-08-12T22:53:54.307Z,24.32
2022-08-12T22:56:30.853Z,24.32
2022-08-12T22:59:02.863Z,24.33
2022-08-12T23:02:01.088Z,24.34
2022-08-12T23:04:27.827Z,24.31
2022-08-12T23:06:56.871Z,24.29
2022-08-12T23:09:34.633Z,24.26
2022-08-12T23:12:34.510Z,24.21
2022-08-12T23:15:05.627Z,24.14
2022-08-12T23:17:40.234Z,24.02
2022-08-12T23:20:10.927Z,23.82
2022-08-12T23:22:38.330Z,23.68
2022-08-12T23:25:05.388Z,23.52
2022-08-12T23:27:56.212Z,23.37
2022-08-12T23:30:32.157Z,23.21
2022-08-12T23:33:20.080Z,23.03
2022-08-12T23:35:58.858Z,22.91
2022-08-12T23:38:32.222Z,22.92
2022-08-12T23:41:01.483Z,22.89
2022-08-12T23:43:38.463Z,22.86
2022-08-12T23:46:08.661Z,22.84
2022-08-12T23:48:35.800Z,22.86
2022-08-12T23:51:23.276Z,22.89
2022-08-12T23:53:56.465Z,22.87
2022-08-12T23:56:29.204Z,22.80
2022-08-12T23:58:58.613Z,22.72
